createdAt,value
2018-11-26T00:00:35.996Z,55.50
2018-11-26T00:03:08.646Z,51.93
2018-11-26T00:05:39.033Z,59.03
2018-11-26T00:08:09.150Z,61.67
2018-11-26T00:11:40.639Z,61.67
2018-11-26T00:14:09.149Z,60.97
2018-11-26T00:16:37.602Z,62.07
2018-11-26T00:19:06.530Z,57.87
2018-11-26T00:21:35.052Z,53.20
2018-11-26T00:24:03.590Z,57.40
2018-11-26T00:26:32.050Z,57.23
2018-11-26T00:29:00.545Z,56.37
2018-11-26T00:31:29.035Z,61.07
2018-11-26T00:33:57.522Z,70.23
2018-11-26T00:36:26.141Z,60.63
2018-11-26T00:38:54.729Z,62.07
2018-11-26T00:41:23.203Z,55.13
2018-11-26T00:43:51.723Z,60.73
2018-11-26T00:46:20.782Z,60.07
2018-11-26T00:48:48.822Z,63.53
2018-11-26T00:51:17.306Z,61.70
2018-11-26T00:53:45.971Z,68.20
2018-11-26T00:56:14.553Z,57.27
2018-11-26T00:58:43.079Z,64.17
2018-11-26T01:01:11.538Z,54.07
2018-11-26T01:03:40.050Z,62.00
2018-11-26T01:06:08.519Z,65.77
2018-11-26T01:08:37.011Z,74.97
2018-11-26T01:11:05.999Z,61.13
2018-11-26T01:13:34.642Z,72.13
2018-11-26T01:16:03.181Z,77.10
2018-11-26T01:18:31.649Z,69.23
2018-11-26T01:21:00.113Z,60.77
2018-11-26T01:23:28.607Z,59.97
2018-11-26T01:25:57.129Z,63.87
2018-11-26T01:28:25.607Z,70.53
2018-11-26T01:30:54.079Z,62.47
2018-11-26T01:33:22.606Z,63.13
2018-11-26T01:35:51.109Z,70.17
2018-11-26T01:38:19.570Z,68.00
2018-11-26T01:40:51.499Z,72.90
2018-11-26T01:43:20.890Z,69.00
2018-11-26T01:45:49.423Z,71.63
2018-11-26T01:48:17.948Z,77.90
2018-11-26T01:50:46.405Z,64.10
2018-11-26T01:53:14.872Z,72.10
2018-11-26T01:55:43.376Z,67.97
2018-11-26T01:58:11.904Z,66.60
2018-11-26T02:00:40.355Z,76.03
2018-11-26T02:03:08.806Z,66.80
2018-11-26T02:05:37.286Z,72.90
2018-11-26T02:08:06.786Z,68.37
2018-11-26T02:10:35.298Z,80.00
2018-11-26T02:13:04.095Z,67.20
2018-11-26T02:15:37.774Z,69.77
2018-11-26T02:18:06.751Z,67.83
2018-11-26T02:20:36.249Z,75.00
2018-11-26T02:23:04.825Z,87.97
2018-11-26T02:25:33.422Z,71.17
2018-11-26T02:28:01.911Z,80.50
2018-11-26T02:30:30.996Z,70.90
2018-11-26T02:32:59.557Z,73.50
2018-11-26T02:35:28.068Z,68.70
2018-11-26T02:37:56.540Z,71.43
2018-11-26T02:40:27.242Z,75.17
2018-11-26T02:42:55.803Z,70.60
2018-11-26T02:45:24.413Z,64.87
2018-11-26T02:47:52.951Z,66.30
2018-11-26T02:50:21.454Z,64.37
2018-11-26T02:52:49.911Z,58.90
2018-11-26T02:55:18.406Z,68.63
2018-11-26T02:57:46.918Z,67.70
2018-11-26T03:00:15.458Z,62.43
2018-11-26T03:02:43.946Z,60.00
2018-11-26T03:05:13.353Z,64.00
2018-11-26T03:07:41.900Z,62.33
2018-11-26T03:10:10.887Z,68.23
2018-11-26T03:12:39.714Z,54.10
2018-11-26T03:15:11.206Z,59.53
2018-11-26T03:17:40.007Z,58.07
2018-11-26T03:20:09.728Z,56.90
2018-11-26T03:22:38.320Z,67.10
2018-11-26T03:25:08.395Z,61.70
2018-11-26T03:27:36.922Z,62.73
2018-11-26T03:30:11.999Z,53.33
2018-11-26T03:32:40.590Z,53.10
2018-11-26T03:35:09.955Z,57.97
2018-11-26T03:37:38.634Z,56.47
2018-11-26T03:40:11.234Z,56.10
2018-11-26T03:42:39.856Z,52.13
2018-11-26T03:45:11.150Z,53.47
2018-11-26T03:47:39.697Z,59.13
2018-11-26T03:50:08.675Z,45.83
2018-11-26T03:52:37.218Z,50.17
2018-11-26T03:55:07.246Z,57.10
2018-11-26T03:57:35.725Z,52.77
2018-11-26T04:00:04.468Z,58.27
2018-11-26T04:02:32.948Z,63.00
2018-11-26T04:05:01.492Z,62.00
2018-11-26T04:07:30.002Z,54.60
2018-11-26T04:09:58.497Z,59.77
2018-11-26T04:12:27.010Z,59.27
2018-11-26T04:14:55.541Z,58.00
2018-11-26T04:17:24.084Z,52.27
2018-11-26T04:19:52.536Z,59.83
2018-11-26T04:22:21.157Z,47.97
2018-11-26T04:24:49.727Z,63.00
2018-11-26T04:27:18.303Z,53.30
2018-11-26T04:29:46.772Z,61.07
2018-11-26T04:32:15.267Z,50.63
2018-11-26T04:34:43.946Z,48.40
2018-11-26T04:37:12.415Z,59.70
2018-11-26T04:39:40.898Z,53.43
2018-11-26T04:42:09.396Z,51.63
2018-11-26T04:44:37.908Z,49.03
2018-11-26T04:47:06.492Z,56.33
2018-11-26T04:49:34.975Z,41.47
2018-11-26T04:52:03.503Z,53.00
2018-11-26T04:54:31.997Z,57.87
2018-11-26T04:57:00.488Z,56.83
2018-11-26T04:59:29.044Z,59.20
2018-11-26T05:01:57.757Z,66.57
2018-11-26T05:04:26.276Z,65.87
2018-11-26T05:06:54.753Z,66.60
2018-11-26T05:09:23.263Z,60.67
2018-11-26T05:11:51.717Z,58.23
2018-11-26T05:14:20.268Z,67.40
2018-11-26T05:16:48.850Z,63.53
2018-11-26T05:19:17.386Z,57.80
2018-11-26T05:21:45.874Z,57.63
2018-11-26T05:24:14.399Z,62.17
2018-11-26T05:26:42.894Z,73.23
2018-11-26T05:29:11.396Z,69.53
2018-11-26T05:31:39.926Z,74.43
2018-11-26T05:34:08.427Z,74.90
2018-11-26T05:36:37.015Z,77.80
2018-11-26T05:39:08.349Z,81.70
2018-11-26T05:41:37.104Z,80.13
2018-11-26T05:44:05.742Z,70.43
2018-11-26T05:46:34.263Z,80.23
2018-11-26T05:49:02.761Z,71.10
2018-11-26T05:51:31.218Z,71.60
2018-11-26T05:53:59.754Z,78.87
2018-11-26T05:56:28.241Z,75.80
2018-11-26T05:58:56.759Z,78.80
2018-11-26T06:01:25.263Z,81.83
2018-11-26T06:03:53.757Z,63.37
2018-11-26T06:06:22.800Z,60.33
2018-11-26T06:08:51.365Z,66.57
2018-11-26T06:11:19.905Z,67.73
2018-11-26T06:13:48.404Z,91.07
2018-11-26T06:16:16.947Z,68.93
2018-11-26T06:18:45.506Z,66.13
2018-11-26T06:21:15.063Z,74.03
2018-11-26T06:23:43.523Z,70.67
2018-11-26T06:26:12.047Z,64.33
2018-11-26T06:28:40.582Z,73.10
2018-11-26T06:31:10.331Z,67.50
2018-11-26T06:33:39.035Z,64.30
2018-11-26T06:36:07.559Z,76.93
2018-11-26T06:38:36.107Z,68.03
2018-11-26T06:41:04.734Z,65.50
2018-11-26T06:43:33.385Z,75.90
2018-11-26T06:46:02.676Z,72.10
2018-11-26T06:48:31.135Z,68.13
2018-11-26T06:50:59.610Z,72.23
2018-11-26T06:53:28.189Z,69.90
2018-11-26T06:55:56.856Z,66.20
2018-11-26T06:58:25.491Z,64.70
2018-11-26T07:00:54.142Z,77.30
2018-11-26T07:03:22.705Z,76.90
2018-11-26T07:05:51.218Z,77.13
2018-11-26T07:08:19.768Z,72.90
2018-11-26T07:10:48.247Z,67.43
2018-11-26T07:13:16.784Z,64.57
2018-11-26T07:15:45.760Z,73.03
2018-11-26T07:18:14.295Z,74.80
2018-11-26T07:20:42.765Z,67.90
2018-11-26T07:23:17.769Z,78.03
2018-11-26T07:25:46.265Z,70.60
2018-11-26T07:28:15.133Z,71.87
2018-11-26T07:30:43.605Z,68.87
2018-11-26T07:33:12.117Z,64.07
2018-11-26T07:35:40.601Z,70.93
2018-11-26T07:38:09.053Z,72.80
2018-11-26T07:40:37.550Z,76.40
2018-11-26T07:43:09.393Z,69.50
2018-11-26T07:45:38.114Z,70.17
2018-11-26T07:48:07.923Z,68.73
2018-11-26T07:50:36.927Z,63.27
2018-11-26T07:53:07.894Z,68.07
2018-11-26T07:55:36.739Z,65.83
2018-11-26T07:58:05.288Z,66.27
2018-11-26T08:00:33.759Z,71.37
2018-11-26T08:03:02.297Z,70.40
2018-11-26T08:05:30.814Z,64.03
2018-11-26T08:07:59.289Z,61.40
2018-11-26T08:10:28.184Z,69.47
2018-11-26T08:12:56.945Z,67.67
2018-11-26T08:15:26.639Z,71.97
2018-11-26T08:17:55.219Z,65.80
2018-11-26T08:20:23.704Z,69.00
2018-11-26T08:22:52.156Z,72.03
2018-11-26T08:25:21.707Z,67.53
2018-11-26T08:27:50.686Z,68.20
2018-11-26T08:30:22.238Z,62.53
2018-11-26T08:32:52.712Z,67.57
2018-11-26T08:35:21.252Z,62.27
2018-11-26T08:38:54.590Z,74.10
2018-11-26T08:41:27.247Z,89.53
2018-11-26T08:43:57.607Z,71.87
2018-11-26T08:46:36.862Z,70.87
2018-11-26T08:49:12.290Z,70.80
2018-11-26T08:51:40.809Z,72.50
2018-11-26T08:54:09.324Z,63.20
2018-11-26T08:56:37.778Z,75.67
2018-11-26T08:59:06.291Z,70.53
2018-11-26T09:01:39.098Z,78.10
2018-11-26T09:04:11.054Z,67.83
2018-11-26T09:06:39.507Z,76.03
2018-11-26T09:09:09.932Z,73.20
2018-11-26T09:11:38.457Z,74.80
2018-11-26T09:14:07.336Z,72.73
2018-11-26T09:16:35.933Z,74.03
2018-11-26T09:19:04.903Z,70.70
2018-11-26T09:21:33.355Z,66.83
2018-11-26T09:24:01.941Z,68.50
2018-11-26T09:26:30.346Z,68.83
2018-11-26T09:28:58.778Z,67.87
2018-11-26T09:31:27.258Z,71.97
2018-11-26T09:33:55.710Z,67.50
2018-11-26T09:36:24.194Z,71.73
2018-11-26T09:38:52.816Z,73.60
2018-11-26T09:41:21.383Z,64.10
2018-11-26T09:43:49.838Z,77.43
2018-11-26T09:46:18.290Z,68.33
2018-11-26T09:48:46.754Z,71.80
2018-11-26T09:51:15.253Z,66.77
2018-11-26T09:53:43.724Z,83.00
2018-11-26T09:56:12.268Z,70.53
2018-11-26T09:58:40.699Z,65.70
2018-11-26T10:01:15.905Z,69.23
2018-11-26T10:03:44.337Z,74.70
2018-11-26T10:06:12.839Z,65.80
2018-11-26T10:08:41.300Z,72.63
2018-11-26T10:11:10.130Z,76.43
2018-11-26T10:13:38.623Z,70.03
2018-11-26T10:16:07.877Z,74.47
2018-11-26T10:18:36.327Z,74.20
2018-11-26T10:21:04.800Z,69.73
2018-11-26T10:23:33.265Z,72.73
2018-11-26T10:26:01.771Z,68.60
2018-11-26T10:28:30.227Z,73.00
2018-11-26T10:30:58.742Z,65.33
2018-11-26T10:33:27.231Z,71.10
2018-11-26T10:35:55.740Z,58.43
2018-11-26T10:38:24.197Z,67.37
2018-11-26T10:40:52.663Z,64.23
2018-11-26T10:43:21.187Z,60.90
2018-11-26T10:45:49.716Z,72.60
2018-11-26T10:48:18.229Z,58.23
2018-11-26T10:50:46.682Z,58.77
2018-11-26T10:53:15.374Z,55.40
2018-11-26T10:55:43.889Z,59.90
2018-11-26T10:58:12.379Z,56.73
2018-11-26T11:00:46.014Z,61.10
2018-11-26T11:03:14.529Z,57.90
2018-11-26T11:05:43.034Z,51.77
2018-11-26T11:08:11.562Z,67.50
2018-11-26T11:10:40.628Z,67.47
2018-11-26T11:13:09.111Z,63.77
2018-11-26T11:15:37.872Z,57.10
2018-11-26T11:18:07.591Z,58.93
2018-11-26T11:20:36.227Z,60.00
2018-11-26T11:23:04.805Z,62.63
2018-11-26T11:25:33.363Z,55.00
2018-11-26T11:28:01.849Z,60.60
2018-11-26T11:30:30.750Z,61.37
2018-11-26T11:32:59.464Z,59.17
2018-11-26T11:35:28.038Z,60.63
2018-11-26T11:37:56.616Z,70.07
2018-11-26T11:40:28.616Z,60.63
2018-11-26T11:42:57.798Z,56.80
2018-11-26T11:45:27.306Z,60.40
2018-11-26T11:47:55.840Z,60.87
2018-11-26T11:50:24.340Z,61.43
2018-11-26T11:52:52.825Z,57.33
2018-11-26T11:55:23.623Z,61.80
2018-11-26T11:57:52.441Z,59.40
2018-11-26T12:00:34.686Z,52.23
2018-11-26T12:03:05.544Z,68.13
2018-11-26T12:05:34.019Z,66.23
2018-11-26T12:08:02.545Z,59.07
2018-11-26T12:10:30.991Z,53.63
2018-11-26T12:12:59.629Z,62.43
2018-11-26T12:15:28.144Z,58.63
2018-11-26T12:17:56.643Z,59.60
2018-11-26T12:20:25.191Z,59.87
2018-11-26T12:22:53.636Z,68.47
2018-11-26T12:25:22.323Z,62.90
2018-11-26T12:27:50.834Z,67.10
2018-11-26T12:30:24.633Z,59.00
2018-11-26T12:32:53.156Z,67.33
2018-11-26T12:35:21.741Z,61.03
2018-11-26T12:37:50.395Z,68.77
2018-11-26T12:40:22.039Z,62.80
2018-11-26T12:42:52.515Z,61.30
2018-11-26T12:45:23.204Z,62.43
2018-11-26T12:47:51.711Z,60.83
2018-11-26T12:50:20.255Z,63.13
2018-11-26T12:52:48.778Z,64.17
2018-11-26T12:55:18.291Z,70.83
2018-11-26T12:57:47.745Z,70.87
2018-11-26T13:00:21.425Z,68.20
2018-11-26T13:02:53.368Z,61.53
2018-11-26T13:05:21.948Z,71.27
2018-11-26T13:07:50.490Z,61.90
2018-11-26T13:10:20.572Z,63.40
2018-11-26T13:12:49.742Z,61.87
2018-11-26T13:15:22.224Z,63.83
2018-11-26T13:17:50.825Z,59.53
2018-11-26T13:20:21.968Z,65.40
2018-11-26T13:22:50.983Z,63.53
2018-11-26T13:25:21.723Z,63.60
2018-11-26T13:27:52.043Z,62.63
2018-11-26T13:30:30.254Z,58.23
2018-11-26T13:32:59.971Z,53.13
2018-11-26T13:35:28.470Z,62.53
2018-11-26T13:37:58.098Z,60.53
2018-11-26T13:40:26.475Z,65.33
2018-11-26T13:42:54.979Z,61.63
2018-11-26T13:45:30.289Z,59.27
2018-11-26T13:47:58.854Z,60.00
2018-11-26T13:50:28.963Z,63.43
2018-11-26T13:52:57.592Z,57.20
2018-11-26T13:55:26.090Z,58.40
2018-11-26T13:57:54.576Z,53.17
2018-11-26T14:00:23.140Z,57.53
2018-11-26T14:02:51.619Z,54.57
2018-11-26T14:05:21.307Z,58.53
2018-11-26T14:07:54.625Z,62.87
2018-11-26T14:10:25.451Z,63.07
2018-11-26T14:13:07.867Z,55.63
2018-11-26T14:15:36.434Z,57.43
2018-11-26T14:18:06.267Z,56.37
2018-11-26T14:20:34.991Z,55.53
2018-11-26T14:25:36.566Z,53.13
2018-11-26T14:30:46.610Z,61.00
2018-11-26T14:33:15.110Z,56.77
2018-11-26T14:35:43.573Z,65.30
2018-11-26T14:38:12.070Z,52.23
2018-11-26T14:40:44.231Z,55.13
2018-11-26T14:43:12.968Z,55.77
2018-11-26T14:45:41.457Z,48.43
2018-11-26T14:48:09.962Z,49.43
2018-11-26T14:50:38.547Z,54.27
2018-11-26T14:53:13.511Z,52.60
2018-11-26T14:55:42.007Z,52.83
2018-11-26T14:58:10.949Z,56.17
2018-11-26T15:00:39.504Z,50.47
2018-11-26T15:03:09.258Z,47.80
2018-11-26T15:05:39.503Z,48.00
2018-11-26T15:08:07.983Z,55.80
2018-11-26T15:10:36.499Z,58.27
2018-11-26T15:13:05.993Z,54.77
2018-11-26T15:15:34.451Z,57.37
2018-11-26T15:18:04.712Z,52.87
2018-11-26T15:20:33.356Z,68.57
2018-11-26T15:23:03.023Z,54.50
2018-11-26T15:25:33.033Z,56.27
2018-11-26T15:28:06.331Z,54.30
2018-11-26T15:30:35.759Z,53.73
2018-11-26T15:33:04.598Z,63.97
2018-11-26T15:35:36.972Z,52.93
2018-11-26T15:38:05.714Z,52.43
2018-11-26T15:40:40.736Z,54.90
2018-11-26T15:43:09.256Z,65.03
2018-11-26T15:45:38.130Z,54.33
2018-11-26T15:48:11.734Z,55.30
2018-11-26T15:50:51.193Z,53.40
2018-11-26T15:53:20.254Z,59.67
2018-11-26T15:55:48.949Z,62.17
2018-11-26T15:58:17.440Z,60.07
2018-11-26T16:00:46.227Z,58.27
2018-11-26T16:03:14.896Z,58.63
2018-11-26T16:05:44.635Z,58.07
2018-11-26T16:08:23.300Z,64.53
2018-11-26T16:10:51.968Z,57.80
2018-11-26T16:13:20.475Z,58.67
2018-11-26T16:15:49.101Z,52.77
2018-11-26T16:18:19.248Z,52.80
2018-11-26T16:20:48.146Z,54.07
2018-11-26T16:23:16.676Z,53.70
2018-11-26T16:25:47.525Z,53.50
2018-11-26T16:28:23.646Z,59.17
2018-11-26T16:30:52.535Z,61.27
2018-11-26T16:33:21.158Z,53.57
2018-11-26T16:35:49.693Z,56.27
2018-11-26T16:38:18.558Z,51.83
2018-11-26T16:40:47.269Z,49.70
2018-11-26T16:43:15.804Z,63.90
2018-11-26T16:45:44.400Z,58.83
2018-11-26T16:48:13.063Z,54.97
2018-11-26T16:50:42.877Z,56.13
2018-11-26T16:53:11.397Z,56.47
2018-11-26T16:55:39.995Z,54.67
2018-11-26T16:58:08.505Z,52.30
2018-11-26T17:00:37.659Z,47.27
2018-11-26T17:03:06.513Z,49.20
2018-11-26T17:05:36.368Z,57.00
2018-11-26T17:08:05.758Z,57.40
2018-11-26T17:10:34.224Z,45.57
2018-11-26T17:13:02.748Z,60.90
2018-11-26T17:15:31.183Z,56.23
2018-11-26T17:18:00.057Z,59.30
2018-11-26T17:20:29.663Z,58.03
2018-11-26T17:22:58.945Z,56.10
2018-11-26T17:25:29.582Z,54.77
2018-11-26T17:27:58.144Z,58.67
2018-11-26T17:30:27.680Z,66.77
2018-11-26T17:32:59.301Z,54.80
2018-11-26T17:35:28.328Z,59.37
2018-11-26T17:37:56.903Z,57.53
2018-11-26T17:40:25.986Z,55.20
2018-11-26T17:42:56.355Z,51.03
2018-11-26T17:45:25.605Z,49.93
2018-11-26T17:47:59.296Z,57.70
2018-11-26T17:50:35.384Z,69.13
2018-11-26T17:53:04.224Z,57.10
2018-11-26T17:55:32.740Z,56.10
2018-11-26T17:58:01.334Z,56.97
2018-11-26T18:00:32.209Z,56.20
2018-11-26T18:03:00.807Z,60.93
2018-11-26T18:05:30.463Z,51.03
2018-11-26T18:08:04.462Z,63.87
2018-11-26T18:10:32.931Z,60.40
2018-11-26T18:13:01.404Z,49.87
2018-11-26T18:15:29.959Z,60.63
2018-11-26T18:17:58.456Z,61.73
2018-11-26T18:20:33.698Z,56.13
2018-11-26T18:23:02.159Z,53.23
2018-11-26T18:25:30.638Z,58.73
2018-11-26T18:28:01.179Z,60.00
2018-11-26T18:31:01.953Z,57.43
2018-11-26T18:33:30.506Z,54.37
2018-11-26T18:35:59.027Z,62.20
2018-11-26T18:38:27.472Z,60.50
2018-11-26T18:40:56.968Z,59.03
2018-11-26T18:43:25.415Z,57.17
2018-11-26T18:45:53.925Z,54.47
2018-11-26T18:48:22.514Z,61.33
2018-11-26T18:50:50.893Z,61.27
2018-11-26T18:53:19.499Z,61.30
2018-11-26T18:55:47.989Z,67.00
2018-11-26T18:58:16.508Z,63.57
2018-11-26T19:00:47.774Z,56.63
2018-11-26T19:03:18.883Z,57.53
2018-11-26T19:05:48.471Z,68.37
2018-11-26T19:08:17.082Z,62.73
2018-11-26T19:10:46.155Z,61.73
2018-11-26T19:13:17.642Z,69.13
2018-11-26T19:15:47.780Z,60.73
2018-11-26T19:18:19.912Z,67.53
2018-11-26T19:20:48.414Z,73.30
2018-11-26T19:23:16.968Z,58.43
2018-11-26T19:25:46.244Z,60.23
2018-11-26T19:28:20.218Z,64.27
2018-11-26T19:30:43.428Z,70.53
2018-11-26T19:33:12.370Z,66.07
2018-11-26T19:35:41.077Z,69.27
2018-11-26T19:38:09.653Z,74.67
2018-11-26T19:40:39.547Z,70.37
2018-11-26T19:43:08.560Z,71.53
2018-11-26T19:45:37.804Z,64.47
2018-11-26T19:48:08.473Z,68.60
2018-11-26T19:50:39.861Z,67.33
2018-11-26T19:53:12.295Z,74.37
2018-11-26T19:55:42.176Z,68.80
2018-11-26T19:58:10.834Z,64.10
2018-11-26T20:00:39.648Z,73.30
2018-11-26T20:03:19.344Z,79.27
2018-11-26T20:05:53.212Z,66.70
2018-11-26T20:08:21.692Z,77.70
2018-11-26T20:10:50.323Z,71.97
2018-11-26T20:13:18.805Z,76.10
2018-11-26T20:15:47.290Z,72.60
2018-11-26T20:18:15.826Z,69.40
2018-11-26T20:20:44.371Z,65.27
2018-11-26T20:23:12.903Z,64.50
2018-11-26T20:25:42.279Z,62.10
2018-11-26T20:28:10.790Z,73.30
2018-11-26T20:30:39.376Z,79.00
2018-11-26T20:33:08.316Z,68.87
2018-11-26T20:35:36.914Z,76.40
2018-11-26T20:38:06.040Z,67.37
2018-11-26T20:40:34.635Z,70.40
2018-11-26T20:43:03.152Z,70.00
2018-11-26T20:45:31.734Z,69.67
2018-11-26T20:48:00.196Z,69.67
2018-11-26T20:50:29.485Z,72.07
2018-11-26T20:52:57.968Z,70.30
2018-11-26T20:55:26.822Z,68.30
2018-11-26T20:57:56.377Z,78.03
2018-11-26T21:00:26.812Z,72.07
2018-11-26T21:03:01.451Z,72.37
2018-11-26T21:05:30.060Z,69.77
2018-11-26T21:07:58.561Z,76.10
2018-11-26T21:10:27.144Z,78.70
2018-11-26T21:12:55.667Z,90.03
2018-11-26T21:15:24.185Z,65.70
2018-11-26T21:17:53.524Z,66.40
2018-11-26T21:20:24.743Z,82.00
2018-11-26T21:22:53.528Z,76.67
2018-11-26T21:25:22.145Z,75.17
2018-11-26T21:27:50.609Z,75.10
2018-11-26T21:30:21.082Z,87.03
2018-11-26T21:32:49.639Z,80.70
2018-11-26T21:35:19.288Z,75.10
2018-11-26T21:37:49.326Z,75.23
2018-11-26T21:40:20.538Z,75.23
2018-11-26T21:42:49.430Z,71.57
2018-11-26T21:45:19.579Z,82.90
2018-11-26T21:47:48.057Z,83.60
2018-11-26T21:50:16.644Z,76.30
2018-11-26T21:52:45.441Z,74.83
2018-11-26T21:55:16.160Z,71.90
2018-11-26T21:57:44.703Z,79.50
2018-11-26T22:00:16.853Z,80.03
2018-11-26T22:02:45.439Z,68.37
2018-11-26T22:05:13.951Z,80.10
2018-11-26T22:07:42.463Z,64.30
2018-11-26T22:10:14.415Z,72.93
2018-11-26T22:12:44.030Z,74.17
2018-11-26T22:15:13.367Z,65.03
2018-11-26T22:17:42.368Z,74.77
2018-11-26T22:20:16.451Z,70.50
2018-11-26T22:22:44.943Z,73.23
2018-11-26T22:25:13.447Z,63.73
2018-11-26T22:27:41.985Z,65.47
2018-11-26T22:30:18.961Z,78.73
2018-11-26T22:32:47.508Z,67.50
2018-11-26T22:35:16.000Z,71.03
2018-11-26T22:37:44.506Z,70.63
2018-11-26T22:40:17.203Z,78.13
2018-11-26T22:42:46.462Z,93.80
2018-11-26T22:45:33.085Z,80.77
2018-11-26T22:48:04.407Z,84.50
2018-11-26T22:50:33.046Z,69.27
2018-11-26T22:53:07.960Z,67.67
2018-11-26T22:55:36.712Z,72.10
2018-11-26T22:58:07.468Z,81.83
2018-11-26T23:00:42.918Z,76.73
2018-11-26T23:03:13.205Z,74.10
2018-11-26T23:05:41.663Z,83.23
2018-11-26T23:08:10.145Z,80.60
2018-11-26T23:10:38.672Z,75.30
2018-11-26T23:13:08.251Z,68.63
2018-11-26T23:15:36.779Z,78.97
2018-11-26T23:18:05.929Z,82.77
2018-11-26T23:20:34.418Z,62.77
2018-11-26T23:23:02.976Z,73.67
2018-11-26T23:25:31.463Z,76.13
2018-11-26T23:27:59.986Z,69.43
2018-11-26T23:30:29.489Z,70.30
2018-11-26T23:32:59.093Z,71.33
2018-11-26T23:35:27.623Z,70.90
2018-11-26T23:37:56.144Z,68.93
2018-11-26T23:40:24.678Z,72.27
2018-11-26T23:42:53.212Z,74.80
2018-11-26T23:45:23.741Z,76.30
2018-11-26T23:47:52.263Z,79.47
2018-11-26T23:50:20.948Z,67.07
2018-11-26T23:52:49.409Z,76.43
2018-11-26T23:55:19.093Z,66.03
2018-11-26T23:57:47.596Z,76.73
